createdAt,value
2024-02-07T00:01:16.738Z,99358.91
2024-02-07T00:03:44.106Z,99368.22
2024-02-07T00:06:12.855Z,99368.94
2024-02-07T00:08:40.154Z,99365.34
2024-02-07T00:11:06.533Z,99369.84
2024-02-07T00:13:32.954Z,99371.81
2024-02-07T00:16:00.487Z,99366.38
2024-02-07T00:18:26.864Z,99367.69
2024-02-07T00:20:53.329Z,99371.88
2024-02-07T00:23:20.093Z,99369.03
2024-02-07T00:25:47.613Z,99354.88
2024-02-07T00:28:14.029Z,99367.28
2024-02-07T00:30:40.987Z,99364.13
2024-02-07T00:33:07.629Z,99354.16
2024-02-07T00:35:34.293Z,99365.47
2024-02-07T00:38:00.822Z,99350.41
2024-02-07T00:40:27.311Z,99351.78
2024-02-07T00:42:53.694Z,99357.84
2024-02-07T00:45:20.048Z,99348.22
2024-02-07T00:47:47.648Z,99348.44
2024-02-07T00:50:14.213Z,99342.16
2024-02-07T00:52:40.658Z,99352.53
2024-02-07T00:55:07.548Z,99354.56
2024-02-07T00:57:34.067Z,99346.69
2024-02-07T01:00:00.419Z,99343.97
2024-02-07T01:02:27.355Z,99338.19
2024-02-07T01:04:55.302Z,99345.03
2024-02-07T01:07:23.303Z,99349.34
2024-02-07T01:09:50.402Z,99355.97
2024-02-07T01:12:17.510Z,99342.22
2024-02-07T01:14:43.872Z,99336.50
2024-02-07T01:17:10.356Z,99355.31
2024-02-07T01:19:37.180Z,99348.47
2024-02-07T01:22:03.644Z,99342.94
2024-02-07T01:24:30.007Z,99361.31
2024-02-07T01:26:56.352Z,99352.63
2024-02-07T01:29:23.066Z,99339.47
2024-02-07T01:31:49.638Z,99339.16
2024-02-07T01:34:16.506Z,99353.44
2024-02-07T01:36:46.608Z,99348.38
2024-02-07T01:39:14.545Z,99342.97
2024-02-07T01:41:59.352Z,99346.13
2024-02-07T01:44:27.019Z,99347.72
2024-02-07T01:46:53.600Z,99345.66
2024-02-07T01:49:20.624Z,99349.88
2024-02-07T01:51:48.708Z,99354.41
2024-02-07T01:54:15.346Z,99341.38
2024-02-07T01:56:42.677Z,99351.00
2024-02-07T01:59:09.471Z,99342.50
2024-02-07T02:01:36.956Z,99340.75
2024-02-07T02:04:03.759Z,99349.47
2024-02-07T02:06:30.165Z,99350.03
2024-02-07T02:08:56.634Z,99359.78
2024-02-07T02:11:31.008Z,99357.22
2024-02-07T02:13:58.143Z,99357.28
2024-02-07T02:16:24.604Z,99359.88
2024-02-07T02:18:50.985Z,99367.69
2024-02-07T02:21:22.941Z,99364.25
2024-02-07T02:24:06.877Z,99369.44
2024-02-07T02:26:51.744Z,99380.69
2024-02-07T02:29:27.329Z,99364.06
2024-02-07T02:31:57.432Z,99365.09
2024-02-07T02:34:24.014Z,99367.66
2024-02-07T02:36:50.419Z,99371.97
2024-02-07T02:39:16.744Z,99367.53
2024-02-07T02:41:43.094Z,99355.56
2024-02-07T02:44:09.588Z,99352.06
2024-02-07T02:46:36.015Z,99354.50
2024-02-07T02:49:02.634Z,99360.44
2024-02-07T02:51:29.127Z,99359.88
2024-02-07T02:53:55.876Z,99354.69
2024-02-07T02:56:22.286Z,99359.84
2024-02-07T02:58:48.980Z,99359.75
2024-02-07T03:01:15.586Z,99351.13
2024-02-07T03:03:54.114Z,99346.03
2024-02-07T03:06:30.592Z,99348.66
2024-02-07T03:09:07.849Z,99341.38
2024-02-07T03:11:35.008Z,99357.31
2024-02-07T03:14:05.725Z,99357.31
2024-02-07T03:16:32.228Z,99338.25
2024-02-07T03:18:59.962Z,99341.72
2024-02-07T03:21:27.319Z,99340.00
2024-02-07T03:23:56.411Z,99355.56
2024-02-07T03:26:25.361Z,99367.72
2024-02-07T03:28:54.710Z,99371.16
2024-02-07T03:31:21.779Z,99370.31
2024-02-07T03:33:48.883Z,99371.03
2024-02-07T03:36:16.624Z,99377.16
2024-02-07T03:38:43.055Z,99381.53
2024-02-07T03:41:10.830Z,99391.94
2024-02-07T03:43:37.491Z,99401.44
2024-02-07T03:46:06.794Z,99400.47
2024-02-07T03:48:35.871Z,99401.44
2024-02-07T03:51:03.635Z,99400.50
2024-02-07T03:53:32.085Z,99404.91
2024-02-07T03:55:58.809Z,99407.19
2024-02-07T03:58:26.359Z,99413.38
2024-02-07T04:00:52.890Z,99422.13
2024-02-07T04:03:22.190Z,99428.19
2024-02-07T04:05:48.581Z,99434.19
2024-02-07T04:08:15.122Z,99431.53
2024-02-07T04:10:43.779Z,99445.34
2024-02-07T04:13:11.310Z,99446.78
2024-02-07T04:15:56.533Z,99449.34
2024-02-07T04:18:41.601Z,99453.19
2024-02-07T04:21:26.658Z,99469.53
2024-02-07T04:24:11.774Z,99470.66
2024-02-07T04:26:56.956Z,99479.19
2024-02-07T04:29:42.037Z,99480.97
2024-02-07T04:32:27.268Z,99478.06
2024-02-07T04:35:12.468Z,99485.66
2024-02-07T04:37:57.589Z,99491.25
2024-02-07T04:40:42.975Z,99492.91
2024-02-07T04:43:28.094Z,99493.66
2024-02-07T04:46:13.364Z,99494.81
2024-02-07T04:48:58.658Z,99494.72
2024-02-07T04:51:43.508Z,99503.25
2024-02-07T04:54:28.499Z,99498.75
2024-02-07T04:57:13.496Z,99499.88
2024-02-07T04:59:58.673Z,99493.91
2024-02-07T05:02:43.760Z,99501.47
2024-02-07T05:05:28.743Z,99500.72
2024-02-07T05:08:13.850Z,99490.34
2024-02-07T05:10:58.973Z,99504.09
2024-02-07T05:13:44.359Z,99507.44
2024-02-07T05:16:12.785Z,99513.41
2024-02-07T05:18:39.256Z,99514.28
2024-02-07T05:21:05.698Z,99520.91
2024-02-07T05:23:32.193Z,99527.16
2024-02-07T05:25:59.451Z,99530.06
2024-02-07T05:28:26.054Z,99525.56
2024-02-07T05:30:52.425Z,99532.56
2024-02-07T05:33:18.958Z,99537.56
2024-02-07T05:35:45.515Z,99543.66
2024-02-07T05:38:12.088Z,99554.19
2024-02-07T05:40:38.568Z,99573.16
2024-02-07T05:43:06.280Z,99568.53
2024-02-07T05:45:32.619Z,99567.81
2024-02-07T05:47:59.278Z,99591.44
2024-02-07T05:50:25.673Z,99583.78
2024-02-07T05:52:52.397Z,99593.78
2024-02-07T05:55:19.038Z,99612.25
2024-02-07T05:57:48.322Z,99598.06
2024-02-07T06:02:42.601Z,99607.94
2024-02-07T06:05:09.067Z,99626.00
2024-02-07T06:07:35.624Z,99615.66
2024-02-07T06:10:02.173Z,99611.41
2024-02-07T06:12:29.691Z,99621.44
2024-02-07T06:15:02.313Z,99630.94
2024-02-07T06:17:30.321Z,99630.72
2024-02-07T06:19:57.208Z,99635.34
2024-02-07T06:22:23.729Z,99641.69
2024-02-07T06:24:50.132Z,99641.91
2024-02-07T06:27:16.493Z,99648.22
2024-02-07T06:29:43.758Z,99654.38
2024-02-07T06:32:10.304Z,99659.50
2024-02-07T06:34:37.816Z,99652.16
2024-02-07T06:37:04.771Z,99655.44
2024-02-07T06:39:31.288Z,99650.41
2024-02-07T06:41:57.817Z,99658.25
2024-02-07T06:44:24.203Z,99668.44
2024-02-07T06:46:50.763Z,99654.63
2024-02-07T06:49:17.544Z,99669.81
2024-02-07T06:51:44.210Z,99673.94
2024-02-07T06:54:11.511Z,99667.91
2024-02-07T06:56:38.053Z,99670.44
2024-02-07T06:59:04.655Z,99674.22
2024-02-07T07:01:31.221Z,99679.06
2024-02-07T07:03:58.730Z,99676.66
2024-02-07T07:06:27.510Z,99689.19
2024-02-07T07:08:54.118Z,99688.97
2024-02-07T07:11:20.594Z,99695.66
2024-02-07T07:13:47.042Z,99698.19
2024-02-07T07:16:13.494Z,99704.44
2024-02-07T07:18:40.073Z,99709.19
2024-02-07T07:21:06.463Z,99710.81
2024-02-07T07:23:32.833Z,99724.72
2024-02-07T07:25:59.289Z,99730.97
2024-02-07T07:28:25.646Z,99721.31
2024-02-07T07:30:53.525Z,99734.06
2024-02-07T07:33:19.868Z,99745.88
2024-02-07T07:35:46.332Z,99749.94
2024-02-07T07:38:12.918Z,99759.06
2024-02-07T07:40:43.092Z,99773.22
2024-02-07T07:43:09.549Z,99773.47
2024-02-07T07:45:35.954Z,99775.06
2024-02-07T07:48:02.400Z,99779.25
2024-02-07T07:50:29.033Z,99781.03
2024-02-07T07:52:55.524Z,99790.47
2024-02-07T07:55:22.109Z,99780.16
2024-02-07T07:57:48.757Z,99791.84
2024-02-07T08:00:15.621Z,99791.97
2024-02-07T08:02:41.976Z,99793.31
2024-02-07T08:05:09.221Z,99799.78
2024-02-07T08:07:35.806Z,99808.03
2024-02-07T08:10:02.315Z,99818.09
2024-02-07T08:12:28.681Z,99823.03
2024-02-07T08:14:55.183Z,99833.34
2024-02-07T08:17:21.571Z,99818.34
2024-02-07T08:19:48.364Z,99829.69
2024-02-07T08:22:14.899Z,99829.56
2024-02-07T08:24:41.260Z,99829.97
2024-02-07T08:27:07.654Z,99827.00
2024-02-07T08:29:34.008Z,99840.56
2024-02-07T08:32:01.998Z,99843.06
2024-02-07T08:34:29.026Z,99832.25
2024-02-07T08:36:55.727Z,99849.38
2024-02-07T08:39:22.294Z,99857.59
2024-02-07T08:41:48.737Z,99857.28
2024-02-07T08:44:15.082Z,99867.72
2024-02-07T08:46:44.619Z,99874.91
2024-02-07T08:49:11.750Z,99867.31
2024-02-07T08:51:38.560Z,99876.47
2024-02-07T08:54:05.204Z,99876.41
2024-02-07T08:56:31.714Z,99869.34
2024-02-07T08:58:58.118Z,99891.09
2024-02-07T09:01:27.403Z,99889.78
2024-02-07T09:03:53.828Z,99882.13
2024-02-07T09:06:21.024Z,99887.22
2024-02-07T09:08:47.495Z,99898.44
2024-02-07T09:11:13.929Z,99887.97
2024-02-07T09:13:40.295Z,99885.31
2024-02-07T09:16:06.740Z,99893.72
2024-02-07T09:18:36.484Z,99891.19
2024-02-07T09:21:03.247Z,99902.28
2024-02-07T09:23:29.641Z,99899.38
2024-02-07T09:25:56.055Z,99892.97
2024-02-07T09:28:22.539Z,99899.78
2024-02-07T09:30:49.033Z,99904.22
2024-02-07T09:33:15.935Z,99897.88
2024-02-07T09:35:42.751Z,99905.38
2024-02-07T09:38:09.306Z,99913.81
2024-02-07T09:40:35.904Z,99907.91
2024-02-07T09:43:02.770Z,99912.78
2024-02-07T09:45:33.689Z,99923.03
2024-02-07T09:48:07.927Z,99920.38
2024-02-07T09:50:34.366Z,99924.53
2024-02-07T09:53:01.192Z,99919.72
2024-02-07T09:55:28.966Z,99921.66
2024-02-07T09:57:55.479Z,99923.97
2024-02-07T10:00:21.925Z,99927.34
2024-02-07T10:02:51.636Z,99933.13
2024-02-07T10:05:23.835Z,99931.94
2024-02-07T10:07:54.485Z,99947.13
2024-02-07T10:10:21.416Z,99948.13
2024-02-07T10:12:48.254Z,99963.03
2024-02-07T10:15:14.701Z,99961.91
2024-02-07T10:17:41.092Z,99965.34
2024-02-07T10:20:11.436Z,99956.88
2024-02-07T10:22:41.804Z,99972.47
2024-02-07T10:25:13.619Z,99983.88
2024-02-07T10:27:40.381Z,99978.13
2024-02-07T10:30:09.194Z,99995.38
2024-02-07T10:32:36.818Z,99997.88
2024-02-07T10:35:05.307Z,99997.03
2024-02-07T10:37:42.445Z,99990.91
2024-02-07T10:40:10.476Z,100001.59
2024-02-07T10:42:39.958Z,99999.03
2024-02-07T10:45:08.128Z,99999.25
2024-02-07T10:47:35.657Z,99995.97
2024-02-07T10:50:03.052Z,99992.72
2024-02-07T10:52:29.924Z,99999.03
2024-02-07T10:54:56.709Z,99989.25
2024-02-07T10:57:29.223Z,99992.66
2024-02-07T11:00:02.505Z,99992.00
2024-02-07T11:02:29.173Z,100009.75
2024-02-07T11:04:55.808Z,100002.81
2024-02-07T11:07:22.558Z,100006.69
2024-02-07T11:09:49.298Z,100014.72
2024-02-07T11:12:16.506Z,100013.81
2024-02-07T11:14:47.458Z,100014.22
2024-02-07T11:17:15.032Z,100016.03
2024-02-07T11:19:42.506Z,100016.81
2024-02-07T11:22:15.084Z,100022.75
2024-02-07T11:24:41.811Z,100027.50
2024-02-07T11:27:09.699Z,100024.44
2024-02-07T11:29:36.324Z,100035.34
2024-02-07T11:32:04.505Z,100033.78
2024-02-07T11:34:32.904Z,100033.16
2024-02-07T11:37:05.393Z,100028.88
2024-02-07T11:39:37.782Z,100033.88
2024-02-07T11:42:12.647Z,100032.91
2024-02-07T11:44:56.846Z,100033.22
2024-02-07T11:47:52.555Z,100040.38
2024-02-07T11:50:19.176Z,100027.91
2024-02-07T11:52:51.134Z,100038.38
2024-02-07T11:55:18.469Z,100048.16
2024-02-07T11:57:46.902Z,100044.59
2024-02-07T12:00:16.482Z,100038.50
2024-02-07T12:02:53.054Z,100038.50
2024-02-07T12:05:21.928Z,100048.66
2024-02-07T12:07:49.136Z,100050.56
2024-02-07T12:10:15.961Z,100044.31
2024-02-07T12:12:43.989Z,100059.25
2024-02-07T12:15:10.601Z,100054.09
2024-02-07T12:17:37.067Z,100060.28
2024-02-07T12:20:04.254Z,100064.75
2024-02-07T12:22:34.854Z,100065.50
2024-02-07T12:25:02.929Z,100063.25
2024-02-07T12:27:29.606Z,100068.78
2024-02-07T12:29:57.461Z,100063.41
2024-02-07T12:32:25.203Z,100059.59
2024-02-07T12:34:53.165Z,100066.22
2024-02-07T12:37:20.532Z,100062.59
2024-02-07T12:39:51.965Z,100064.41
2024-02-07T12:42:21.695Z,100073.66
2024-02-07T12:44:54.189Z,100070.50
2024-02-07T12:47:23.401Z,100065.00
2024-02-07T12:49:51.961Z,100065.63
2024-02-07T12:52:19.385Z,100070.91
2024-02-07T12:54:46.824Z,100073.31
2024-02-07T12:57:24.831Z,100071.16
2024-02-07T12:59:54.598Z,100076.66
2024-02-07T13:02:21.342Z,100073.88
2024-02-07T13:04:48.352Z,100074.78
2024-02-07T13:07:16.835Z,100066.56
2024-02-07T13:09:45.205Z,100069.38
2024-02-07T13:12:19.295Z,100069.00
2024-02-07T13:14:53.882Z,100071.94
2024-02-07T13:17:20.263Z,100070.56
2024-02-07T13:19:46.700Z,100076.66
2024-02-07T13:22:15.339Z,100094.59
2024-02-07T13:24:42.276Z,100100.59
2024-02-07T13:27:08.703Z,100100.41
2024-02-07T13:29:38.020Z,100113.75
2024-02-07T13:32:10.737Z,100119.50
2024-02-07T13:34:38.170Z,100120.50
2024-02-07T13:37:05.111Z,100110.50
2024-02-07T13:39:31.487Z,100106.94
2024-02-07T13:41:58.179Z,100109.59
2024-02-07T13:44:24.531Z,100104.25
2024-02-07T13:46:50.979Z,100112.94
2024-02-07T13:49:17.427Z,100110.19
2024-02-07T13:51:43.983Z,100103.44
2024-02-07T13:54:12.024Z,100106.53
2024-02-07T13:56:39.073Z,100111.84
2024-02-07T13:59:05.650Z,100107.50
2024-02-07T14:01:32.121Z,100097.66
2024-02-07T14:04:02.390Z,100104.47
2024-02-07T14:06:28.771Z,100112.09
2024-02-07T14:08:55.101Z,100113.22
2024-02-07T14:11:21.453Z,100118.06
2024-02-07T14:13:47.865Z,100107.16
2024-02-07T14:16:15.632Z,100110.59
2024-02-07T14:18:42.170Z,100116.78
2024-02-07T14:21:08.893Z,100123.31
2024-02-07T14:23:37.287Z,100139.25
2024-02-07T14:26:04.726Z,100148.50
2024-02-07T14:28:31.211Z,100142.00
2024-02-07T14:30:57.621Z,100142.75
2024-02-07T14:33:24.078Z,100139.16
2024-02-07T14:35:50.575Z,100135.84
2024-02-07T14:38:19.200Z,100142.22
2024-02-07T14:40:45.731Z,100139.97
2024-02-07T14:43:13.733Z,100143.66
2024-02-07T14:45:40.164Z,100133.16
2024-02-07T14:48:06.781Z,100132.72
2024-02-07T14:50:33.352Z,100141.53
2024-02-07T14:52:59.819Z,100138.81
2024-02-07T14:55:26.254Z,100133.53
2024-02-07T14:57:52.749Z,100127.56
2024-02-07T15:00:19.479Z,100133.84
2024-02-07T15:02:45.810Z,100136.38
2024-02-07T15:05:14.932Z,100134.06
2024-02-07T15:07:41.591Z,100132.59
2024-02-07T15:10:12.931Z,100125.50
2024-02-07T15:12:39.712Z,100133.13
2024-02-07T15:15:07.255Z,100130.00
2024-02-07T15:17:34.135Z,100129.31
2024-02-07T15:20:00.635Z,100132.97
2024-02-07T15:22:27.885Z,100140.94
2024-02-07T15:24:54.234Z,100125.81
2024-02-07T15:27:20.589Z,100134.34
2024-02-07T15:29:46.948Z,100125.78
2024-02-07T15:32:13.299Z,100140.63
2024-02-07T15:34:39.741Z,100125.28
2024-02-07T15:37:06.545Z,100132.84
2024-02-07T15:39:33.274Z,100136.28
2024-02-07T15:41:59.626Z,100135.03
2024-02-07T15:44:25.963Z,100129.44
2024-02-07T15:46:52.328Z,100130.34
2024-02-07T15:49:18.947Z,100134.06
2024-02-07T15:51:45.405Z,100128.00
2024-02-07T15:54:12.337Z,100122.47
2024-02-07T15:56:38.889Z,100129.28
2024-02-07T15:59:05.737Z,100125.22
2024-02-07T16:01:40.733Z,100130.22
2024-02-07T16:04:12.851Z,100131.38
2024-02-07T16:06:39.534Z,100128.31
2024-02-07T16:09:05.933Z,100134.56
2024-02-07T16:11:32.280Z,100134.38
2024-02-07T16:13:58.777Z,100135.97
2024-02-07T16:16:25.246Z,100138.53
2024-02-07T16:18:51.597Z,100140.97
2024-02-07T16:21:18.006Z,100146.25
2024-02-07T16:23:44.346Z,100142.72
2024-02-07T16:26:10.754Z,100148.06
2024-02-07T16:28:37.125Z,100153.13
2024-02-07T16:31:07.879Z,100154.81
2024-02-07T16:33:34.437Z,100148.41
2024-02-07T16:36:00.944Z,100154.06
2024-02-07T16:38:27.901Z,100141.94
2024-02-07T16:40:54.459Z,100149.63
2024-02-07T16:43:21.698Z,100144.56
2024-02-07T16:45:48.307Z,100136.91
2024-02-07T16:48:14.722Z,100138.59
2024-02-07T16:50:41.113Z,100139.59
2024-02-07T16:53:07.562Z,100146.91
2024-02-07T16:55:33.958Z,100143.47
2024-02-07T16:58:00.429Z,100144.28
2024-02-07T17:00:26.864Z,100136.44
2024-02-07T17:02:53.256Z,100142.56
2024-02-07T17:05:19.724Z,100139.38
2024-02-07T17:07:46.423Z,100138.84
2024-02-07T17:10:12.928Z,100144.28
2024-02-07T17:12:39.312Z,100141.69
2024-02-07T17:15:06.163Z,100146.22
2024-02-07T17:17:32.561Z,100146.66
2024-02-07T17:19:59.054Z,100145.47
2024-02-07T17:22:25.754Z,100140.69
2024-02-07T17:24:52.178Z,100137.94
2024-02-07T17:27:18.613Z,100133.34
2024-02-07T17:29:52.579Z,100149.72
2024-02-07T17:32:22.070Z,100145.03
2024-02-07T17:34:48.508Z,100151.78
2024-02-07T17:37:14.887Z,100153.28
2024-02-07T17:39:41.231Z,100146.72
2024-02-07T17:42:07.587Z,100140.38
2024-02-07T17:44:33.969Z,100142.81
2024-02-07T17:47:02.482Z,100143.88
2024-02-07T17:49:30.051Z,100141.72
2024-02-07T17:51:57.773Z,100145.06
2024-02-07T17:54:24.258Z,100137.72
2024-02-07T17:56:50.615Z,100135.72
2024-02-07T17:59:16.945Z,100130.75
2024-02-07T18:01:43.426Z,100136.66
2024-02-07T18:04:09.840Z,100126.44
2024-02-07T18:06:36.249Z,100130.91
2024-02-07T18:09:02.735Z,100130.75
2024-02-07T18:11:31.229Z,100129.75
2024-02-07T18:13:57.686Z,100132.59
2024-02-07T18:16:24.306Z,100136.53
2024-02-07T18:18:52.857Z,100131.63
2024-02-07T18:21:20.172Z,100129.75
2024-02-07T18:23:50.382Z,100122.91
2024-02-07T18:26:18.148Z,100123.19
2024-02-07T18:28:47.821Z,100119.69
2024-02-07T18:31:14.607Z,100121.94
2024-02-07T18:33:42.209Z,100129.75
2024-02-07T18:36:10.471Z,100121.59
2024-02-07T18:38:38.929Z,100119.38
2024-02-07T18:41:06.936Z,100121.50
2024-02-07T18:43:34.865Z,100118.16
2024-02-07T18:46:04.780Z,100107.59
2024-02-07T18:48:31.811Z,100117.16
2024-02-07T18:50:59.133Z,100117.34
2024-02-07T18:53:25.929Z,100117.28
2024-02-07T18:55:54.254Z,100123.22
2024-02-07T18:58:21.354Z,100112.69
2024-02-07T19:00:49.914Z,100114.03
2024-02-07T19:03:16.922Z,100113.91
2024-02-07T19:05:46.848Z,100103.50
2024-02-07T19:08:16.683Z,100106.13
2024-02-07T19:10:44.468Z,100105.44
2024-02-07T19:13:11.344Z,100107.25
2024-02-07T19:15:38.293Z,100106.88
2024-02-07T19:18:06.512Z,100106.91
2024-02-07T19:20:34.622Z,100101.91
2024-02-07T19:23:02.029Z,100110.44
2024-02-07T19:25:29.095Z,100113.25
2024-02-07T19:27:57.464Z,100109.97
2024-02-07T19:30:24.259Z,100109.19
2024-02-07T19:32:51.253Z,100108.16
2024-02-07T19:35:18.527Z,100110.47
2024-02-07T19:37:50.765Z,100117.13
2024-02-07T19:40:19.225Z,100106.19
2024-02-07T19:42:46.793Z,100106.56
2024-02-07T19:45:13.747Z,100107.03
2024-02-07T19:47:41.785Z,100104.38
2024-02-07T19:50:13.324Z,100104.81
2024-02-07T19:52:42.788Z,100094.38
2024-02-07T19:55:09.919Z,100095.06
2024-02-07T19:57:37.791Z,100103.66
2024-02-07T20:00:05.190Z,100095.31
2024-02-07T20:02:32.146Z,100095.66
2024-02-07T20:04:59.146Z,100093.13
2024-02-07T20:07:27.640Z,100092.47
2024-02-07T20:09:56.159Z,100088.69
2024-02-07T20:12:25.016Z,100089.72
2024-02-07T20:14:52.447Z,100089.84
2024-02-07T20:17:19.604Z,100094.72
2024-02-07T20:19:46.523Z,100091.78
2024-02-07T20:22:16.138Z,100094.94
2024-02-07T20:24:43.050Z,100090.44
2024-02-07T20:27:10.275Z,100082.97
2024-02-07T20:29:38.486Z,100079.09
2024-02-07T20:32:07.212Z,100075.38
2024-02-07T20:34:34.349Z,100081.78
2024-02-07T20:37:04.184Z,100075.97
2024-02-07T20:39:32.190Z,100071.97
2024-02-07T20:42:00.798Z,100078.78
2024-02-07T20:44:29.556Z,100075.91
2024-02-07T20:46:57.036Z,100079.19
2024-02-07T20:49:24.153Z,100083.19
2024-02-07T20:51:51.667Z,100072.94
2024-02-07T20:54:18.490Z,100073.19
2024-02-07T20:56:45.463Z,100059.75
2024-02-07T20:59:13.396Z,100055.75
2024-02-07T21:01:41.359Z,100059.66
2024-02-07T21:04:08.269Z,100060.97
2024-02-07T21:06:36.311Z,100063.34
2024-02-07T21:09:07.489Z,100053.56
2024-02-07T21:11:34.822Z,100052.03
2024-02-07T21:14:05.893Z,100058.53
2024-02-07T21:16:34.709Z,100053.63
2024-02-07T21:19:01.515Z,100048.25
2024-02-07T21:21:29.979Z,100042.03
2024-02-07T21:23:56.714Z,100042.97
2024-02-07T21:26:24.584Z,100043.09
2024-02-07T21:28:52.207Z,100040.53
2024-02-07T21:31:19.277Z,100042.44
2024-02-07T21:33:48.919Z,100040.72
2024-02-07T21:36:16.841Z,100040.06
2024-02-07T21:38:43.756Z,100037.97
2024-02-07T21:41:10.805Z,100043.38
2024-02-07T21:43:37.837Z,100044.88
2024-02-07T21:46:09.385Z,100049.03
2024-02-07T21:48:37.474Z,100057.94
2024-02-07T21:51:07.571Z,100054.56
2024-02-07T21:53:34.548Z,100059.63
2024-02-07T21:56:01.375Z,100049.03
2024-02-07T21:58:28.562Z,100056.44
2024-02-07T22:00:55.453Z,100044.28
2024-02-07T22:03:22.378Z,100043.09
2024-02-07T22:05:49.165Z,100044.03
2024-02-07T22:08:16.215Z,100039.34
2024-02-07T22:10:43.059Z,100052.03
2024-02-07T22:13:10.079Z,100049.13
2024-02-07T22:15:37.719Z,100043.66
2024-02-07T22:18:04.885Z,100042.25
2024-02-07T22:20:31.676Z,100035.78
2024-02-07T22:22:58.597Z,100046.41
2024-02-07T22:25:25.598Z,100047.69
2024-02-07T22:27:52.543Z,100042.28
2024-02-07T22:30:19.369Z,100037.75
2024-02-07T22:32:51.518Z,100033.75
2024-02-07T22:35:18.698Z,100035.56
2024-02-07T22:37:46.241Z,100032.84
2024-02-07T22:40:14.091Z,100039.25
2024-02-07T22:42:40.430Z,100028.94
2024-02-07T22:45:07.409Z,100034.63
2024-02-07T22:47:33.768Z,100026.28
2024-02-07T22:50:00.578Z,100039.88
2024-02-07T22:52:27.033Z,100033.56
2024-02-07T22:54:53.485Z,100026.69
2024-02-07T22:57:20.846Z,100028.34
2024-02-07T22:59:47.542Z,100019.66
2024-02-07T23:02:15.265Z,100020.84
2024-02-07T23:04:41.654Z,100028.88
2024-02-07T23:07:09.358Z,100030.50
2024-02-07T23:09:35.864Z,100024.53
2024-02-07T23:12:02.836Z,100020.16
2024-02-07T23:14:29.250Z,100014.94
2024-02-07T23:16:55.657Z,100026.75
2024-02-07T23:19:24.892Z,100016.34
2024-02-07T23:21:51.391Z,100015.56
2024-02-07T23:24:17.857Z,100023.25
2024-02-07T23:26:47.534Z,100014.38
2024-02-07T23:29:13.984Z,100023.47
2024-02-07T23:31:40.360Z,100012.13
2024-02-07T23:34:06.796Z,100017.94
2024-02-07T23:36:33.438Z,100008.94
2024-02-07T23:38:59.807Z,100005.22
2024-02-07T23:41:26.190Z,100004.63
2024-02-07T23:43:52.573Z,100002.25
2024-02-07T23:46:20.740Z,100006.94
2024-02-07T23:48:47.377Z,100005.31
2024-02-07T23:51:13.796Z,100007.22
2024-02-07T23:53:40.127Z,100002.78
2024-02-07T23:56:06.822Z,100007.41
2024-02-07T23:58:33.270Z,99994.16
